Time;durP1;ratioP1;P1;durP2;ratioP2;P2;SDS_P1;SDS_P2;PMS_P1;PMS_P2;Temp;Humidity;BMP_temperature;BMP_pressure;BME280_temperature;BME280_humidity;BME280_pressure;Samples;Min_cycle;Max_cycle;Signal;HPM_P1;HPM_P2
2021/08/05 00:02:19;;;;;;;9.57;3.70;;;;;;;21.99;81.91;94585.25;10488799;28;20032;-75
2021/08/05 00:07:20;;;;;;;9.75;3.40;;;;;;;22.06;81.32;94584.66;10488466;28;20384;-75
2021/08/05 00:12:20;;;;;;;14.40;5.00;;;;;;;21.93;82.55;94589.34;10487841;28;20442;-75
2021/08/05 00:17:21;;;;;;;9.63;4.27;;;;;;;21.99;82.88;94571.56;10488319;28;20115;-75
2021/08/05 00:22:21;;;;;;;7.57;3.03;;;;;;;22.03;82.76;94577.09;10488405;28;20029;-75
2021/08/05 00:27:22;;;;;;;10.40;3.63;;;;;;;22.11;83.45;94570.69;10487444;28;20044;-75
2021/08/05 00:32:22;;;;;;;12.73;3.70;;;;;;;22.17;83.16;94572.03;10486663;28;20127;-75
2021/08/05 00:37:22;;;;;;;10.83;3.30;;;;;;;22.33;85.59;94582.19;10487951;28;20059;-75
2021/08/05 00:42:23;;;;;;;9.83;3.93;;;;;;;22.34;86.37;94589.28;10486631;28;20040;-75
2021/08/05 00:47:26;;;;;;;11.13;3.87;;;;;;;22.09;85.01;94591.34;10487289;28;20033;-75
2021/08/05 00:52:27;;;;;;;9.35;4.93;;;;;;;21.81;87.27;94583.94;10487774;28;20056;-75
2021/08/05 00:57:27;;;;;;;14.43;4.10;;;;;;;21.84;88.84;94591.47;10487585;28;20472;-75
2021/08/05 01:02:34;;;;;;;16.05;5.10;;;;;;;21.69;90.70;94593.00;10486509;28;20074;-76
2021/08/05 01:07:43;;;;;;;13.63;4.90;;;;;;;21.49;92.15;94597.50;10487216;28;20043;-75
2021/08/05 01:13:00;;;;;;;10.52;4.43;;;;;;;21.44;95.02;94597.72;10487144;28;20507;-75
2021/08/05 01:18:14;;;;;;;10.90;4.95;;;;;;;21.51;96.20;94589.72;10487311;28;20033;-75
2021/08/05 01:23:36;;;;;;;13.50;5.30;;;;;;;21.56;97.58;94585.97;10487225;28;20029;-75
2021/08/05 01:28:40;;;;;;;15.57;4.70;;;;;;;21.43;99.95;94583.25;10486528;28;20156;-76
2021/08/05 01:33:42;;;;;;;14.23;5.68;;;;;;;21.36;100.00;94580.31;10486924;28;20115;-75
2021/08/05 01:38:46;;;;;;;14.73;5.35;;;;;;;21.39;99.22;94556.94;10486931;28;20052;-76
2021/08/05 01:43:47;;;;;;;16.23;4.72;;;;;;;21.33;100.00;94565.38;10486677;28;20035;-76
2021/08/05 01:48:50;;;;;;;20.27;7.28;;;;;;;21.37;100.00;94570.97;10486582;28;20479;-76
2021/08/05 01:53:51;;;;;;;13.75;5.88;;;;;;;21.40;100.00;94575.75;10493272;28;20036;-76
2021/08/05 01:58:55;;;;;;;12.85;5.32;;;;;;;21.29;100.00;94553.59;10495654;28;20056;-75
2021/08/05 02:04:07;;;;;;;10.57;5.82;;;;;;;21.28;100.00;94553.91;10496934;28;20494;-76
2021/08/05 02:09:16;;;;;;;16.20;5.70;;;;;;;21.34;100.00;94545.13;10496738;28;20040;-76
2021/08/05 02:14:20;;;;;;;11.20;5.30;;;;;;;21.33;100.00;94535.31;10496647;28;20545;-75
2021/08/05 02:19:22;;;;;;;11.90;6.15;;;;;;;21.58;100.00;94540.72;10496293;28;20039;-75
2021/08/05 02:24:27;;;;;;;19.75;5.88;;;;;;;21.61;100.00;94536.50;10496163;28;20048;-75
2021/08/05 02:29:29;;;;;;;18.50;8.57;;;;;;;21.80;100.00;94533.13;10496160;28;20498;-76
2021/08/05 02:34:31;;;;;;;17.25;7.15;;;;;;;21.87;100.00;94535.25;10495529;28;20037;-76
2021/08/05 02:39:32;;;;;;;15.75;6.88;;;;;;;21.89;100.00;94539.22;10495669;28;20056;-76
2021/08/05 02:44:34;;;;;;;20.27;8.95;;;;;;;21.91;100.00;94534.22;10495273;28;20052;-76
2021/08/05 02:49:35;;;;;;;16.25;7.05;;;;;;;21.92;100.00;94529.53;10494833;28;20056;-75
2021/08/05 02:54:35;;;;;;;17.05;8.45;;;;;;;22.05;100.00;94524.75;10495112;28;20060;-75
2021/08/05 02:59:36;;;;;;;14.52;8.85;;;;;;;22.17;100.00;94522.75;10491814;28;20028;-75
2021/08/05 03:04:36;;;;;;;20.38;8.70;;;;;;;22.23;100.00;94523.28;10490426;28;20067;-76
2021/08/05 03:09:37;;;;;;;17.97;10.13;;;;;;;22.20;100.00;94537.66;10490600;28;20050;-76
2021/08/05 03:14:37;;;;;;;17.73;6.00;;;;;;;21.48;100.00;94538.47;10490434;28;20281;-76
2021/08/05 03:19:38;;;;;;;16.92;5.90;;;;;;;21.32;100.00;94535.66;10490152;28;21155;-76
2021/08/05 03:24:38;;;;;;;15.63;6.13;;;;;;;21.15;100.00;94531.28;10489292;28;20113;-75
2021/08/05 03:29:38;;;;;;;14.43;5.20;;;;;;;20.97;100.00;94528.84;10489857;28;20318;-75
2021/08/05 03:34:39;;;;;;;19.77;5.97;;;;;;;21.05;100.00;94520.84;10489456;28;20306;-74
2021/08/05 03:39:39;;;;;;;11.40;4.60;;;;;;;20.90;100.00;94525.88;10489399;28;20370;-75
2021/08/05 03:44:39;;;;;;;11.43;5.67;;;;;;;20.66;100.00;94515.75;10489382;28;20036;-75
2021/08/05 03:49:40;;;;;;;15.10;5.07;;;;;;;20.73;100.00;94501.56;10488849;28;20491;-76
2021/08/05 03:54:40;;;;;;;13.77;5.50;;;;;;;20.50;100.00;94518.38;10488843;28;20130;-74
2021/08/05 03:59:40;;;;;;;14.87;6.83;;;;;;;20.57;100.00;94520.53;10488638;28;20400;-75
2021/08/05 04:04:41;;;;;;;17.60;6.57;;;;;;;20.61;100.00;94505.84;10487198;28;20028;-74
2021/08/05 04:09:42;;;;;;;16.48;6.65;;;;;;;20.71;100.00;94503.81;10486409;28;20028;-74
2021/08/05 04:14:42;;;;;;;20.52;6.95;;;;;;;20.75;100.00;94510.19;10487062;28;20036;-75
2021/08/05 04:19:42;;;;;;;16.10;6.27;;;;;;;20.73;100.00;94502.34;10487964;28;20024;-75
2021/08/05 04:24:43;;;;;;;16.43;7.87;;;;;;;20.87;100.00;94501.19;10487548;28;20435;-75
2021/08/05 04:29:43;;;;;;;24.40;7.03;;;;;;;20.89;100.00;94494.25;10487792;28;20055;-75
2021/08/05 04:34:44;;;;;;;18.58;7.22;;;;;;;20.95;100.00;94489.34;10487754;28;20484;-75
2021/08/05 04:39:44;;;;;;;14.30;5.93;;;;;;;21.05;100.00;94493.53;10487557;28;20035;-75
2021/08/05 04:44:44;;;;;;;20.27;7.10;;;;;;;21.09;100.00;94497.16;10487804;28;20037;-75
2021/08/05 04:49:45;;;;;;;18.73;6.50;;;;;;;21.42;100.00;94507.84;10487586;28;20029;-75
2021/08/05 04:54:46;;;;;;;23.50;8.70;;;;;;;21.82;100.00;94498.81;10487378;28;20032;-74
2021/08/05 04:59:46;;;;;;;22.45;8.27;;;;;;;22.33;100.00;94495.41;10486949;28;20108;-74
2021/08/05 05:04:47;;;;;;;13.80;6.50;;;;;;;22.87;100.00;94496.66;10487012;28;20037;-74
2021/08/05 05:09:47;;;;;;;20.73;6.30;;;;;;;23.30;100.00;94499.50;10487091;28;20107;-74
2021/08/05 05:14:47;;;;;;;16.73;6.40;;;;;;;23.84;99.26;94492.34;10486602;28;20048;-74
2021/08/05 05:19:48;;;;;;;19.63;6.83;;;;;;;23.85;97.44;94499.41;10486147;28;20538;-74
2021/08/05 05:24:48;;;;;;;14.43;6.27;;;;;;;23.95;96.76;94481.59;10487966;28;20052;-74
2021/08/05 05:29:49;;;;;;;16.05;7.55;;;;;;;24.64;92.53;94472.50;10493957;28;20294;-73
2021/08/05 05:34:50;;;;;;;14.57;6.80;;;;;;;25.03;91.29;94480.53;10493617;28;20040;-73
2021/08/05 05:39:51;;;;;;;21.40;7.33;;;;;;;25.31;87.53;94479.31;10493556;28;20033;-73
2021/08/05 05:44:52;;;;;;;16.45;6.93;;;;;;;25.98;84.41;94463.16;10493829;28;20024;-73
2021/08/05 05:49:54;;;;;;;15.43;6.38;;;;;;;26.87;77.20;94445.78;10493373;28;20384;-74
2021/08/05 05:54:54;;;;;;;19.50;7.20;;;;;;;27.68;71.26;94454.81;10493070;28;20557;-73
2021/08/05 05:59:55;;;;;;;15.17;7.13;;;;;;;28.20;67.73;94457.31;10492518;28;20107;-73
2021/08/05 06:04:55;;;;;;;16.67;6.23;;;;;;;28.16;67.46;94453.75;10492874;28;20048;-74
2021/08/05 06:09:55;;;;;;;22.27;7.57;;;;;;;29.24;61.19;94439.03;10493052;28;20108;-74
2021/08/05 06:14:56;;;;;;;14.83;6.90;;;;;;;29.93;56.82;94426.44;10492627;28;20472;-74
2021/08/05 06:19:56;;;;;;;17.00;6.40;;;;;;;30.76;53.13;94420.22;10492210;28;20274;-74
2021/08/05 06:24:56;;;;;;;21.63;7.10;;;;;;;31.31;52.14;94412.91;10492314;28;20062;-73
2021/08/05 06:29:58;;;;;;;14.47;6.13;;;;;;;32.05;49.67;94419.84;10492221;28;20186;-74
2021/08/05 06:34:58;;;;;;;20.55;6.53;;;;;;;32.61;49.51;94399.91;10491256;28;20610;-74
2021/08/05 06:39:59;;;;;;;16.70;6.87;;;;;;;33.12;45.15;94393.44;10491765;28;20098;-74
2021/08/05 06:45:00;;;;;;;14.90;6.75;;;;;;;33.14;45.21;94385.41;10490066;28;20040;-74
2021/08/05 06:50:01;;;;;;;11.90;5.75;;;;;;;33.92;44.49;94375.84;10490726;28;20843;-74
2021/08/05 06:55:01;;;;;;;26.17;6.75;;;;;;;34.38;43.13;94380.34;10490972;28;20032;-74
2021/08/05 07:00:02;;;;;;;18.80;6.63;;;;;;;34.45;41.98;94370.97;10490942;28;20024;-74
2021/08/05 07:05:04;;;;;;;24.20;7.45;;;;;;;34.94;42.49;94370.13;10489486;28;20119;-74
2021/08/05 07:10:05;;;;;;;17.45;7.53;;;;;;;36.14;40.56;94373.81;10490370;28;20024;-74
2021/08/05 07:15:06;;;;;;;14.77;6.88;;;;;;;36.16;40.02;94368.56;10489152;28;20024;-74
2021/08/05 07:20:07;;;;;;;19.40;6.75;;;;;;;34.62;42.69;94368.16;10489917;28;20032;-74
2021/08/05 07:25:10;;;;;;;23.02;7.15;;;;;;;35.09;43.18;94362.13;10510604;28;20055;-74
2021/08/05 07:30:12;;;;;;;14.40;7.63;;;;;;;36.33;40.97;94352.44;10555154;28;20039;-74
2021/08/05 07:35:12;;;;;;;16.70;7.38;;;;;;;35.87;40.56;94343.53;10573513;28;20054;-74
2021/08/05 07:40:14;;;;;;;16.70;6.88;;;;;;;36.77;39.21;94357.34;10573381;28;20027;-74
2021/08/05 07:45:14;;;;;;;15.07;6.18;;;;;;;37.71;37.57;94331.53;10573016;28;20430;-74
2021/08/05 07:50:15;;;;;;;14.97;6.43;;;;;;;38.00;37.01;94336.81;10571934;28;20034;-74
2021/08/05 07:55:16;;;;;;;19.67;6.13;;;;;;;36.80;37.40;94334.09;10572765;28;20128;-74
2021/08/05 08:00:16;;;;;;;15.77;6.45;;;;;;;37.40;37.30;94335.09;10572405;28;20274;-74
2021/08/05 08:05:17;;;;;;;15.77;6.32;;;;;;;37.14;37.04;94324.03;10572208;28;20035;-74
2021/08/05 08:10:17;;;;;;;13.37;5.80;;;;;;;37.05;38.01;94318.38;10572828;28;20031;-75
2021/08/05 08:15:18;;;;;;;12.77;5.87;;;;;;;39.49;33.86;94318.03;10571968;28;20058;-74
2021/08/05 08:20:19;;;;;;;17.60;5.70;;;;;;;41.20;30.42;94314.84;10571448;28;20277;-74
2021/08/05 08:25:19;;;;;;;17.45;5.72;;;;;;;42.46;29.02;94301.44;10570934;28;20054;-74
2021/08/05 08:30:20;;;;;;;19.13;5.03;;;;;;;42.51;29.26;94286.63;10571074;28;20039;-74
2021/08/05 08:35:20;;;;;;;20.83;5.40;;;;;;;39.91;32.62;94280.69;10553192;28;20036;-74
2021/08/05 08:40:22;;;;;;;26.93;6.27;;;;;;;41.62;29.99;94285.59;10571257;28;20493;-74
2021/08/05 08:45:23;;;;;;;15.93;5.50;;;;;;;43.35;26.88;94269.03;10571153;28;20800;-74
2021/08/05 08:50:29;;;;;;;10.17;4.97;;;;;;;44.09;26.29;94272.47;10571023;28;20028;-74
2021/08/05 08:55:31;;;;;;;15.50;5.88;;;;;;;45.35;24.63;94258.22;10552640;28;20032;-74
2021/08/05 09:00:36;;;;;;;21.23;4.28;;;;;;;45.63;24.02;94263.94;10575310;28;20398;-74
2021/08/05 09:05:37;;;;;;;17.15;5.10;;;;;;;46.08;23.39;94251.75;10579590;28;20480;-74
2021/08/05 09:10:37;;;;;;;16.43;5.37;;;;;;;46.05;23.09;94262.09;10579156;28;20053;-74
2021/08/05 09:15:39;;;;;;;10.97;4.20;;;;;;;46.57;21.69;94245.69;10579389;28;20277;-74
2021/08/05 09:20:41;;;;;;;13.90;4.88;;;;;;;46.47;21.80;94213.94;10578923;28;20028;-74
2021/08/05 09:25:41;;;;;;;20.58;4.97;;;;;;;47.06;21.79;94211.06;10578434;28;20052;-74
2021/08/05 09:30:43;;;;;;;19.07;4.80;;;;;;;47.86;22.01;94194.84;10578643;28;20487;-74
2021/08/05 09:35:45;;;;;;;16.42;5.22;;;;;;;47.88;21.56;94191.47;10578574;28;20034;-75
2021/08/05 09:40:49;;;;;;;21.88;5.05;;;;;;;46.16;22.79;94178.13;10578087;28;20114;-74
2021/08/05 09:45:49;;;;;;;25.43;5.73;;;;;;;46.57;20.30;94168.94;10559671;28;20062;-75
2021/08/05 09:51:03;;;;;;;16.23;4.97;;;;;;;47.57;19.75;94156.56;10577532;28;20147;-75
2021/08/05 09:56:11;;;;;;;15.07;4.80;;;;;;;47.05;19.98;94153.38;10577122;28;20027;-74
2021/08/05 10:01:12;;;;;;;20.48;4.53;;;;;;;47.01;19.39;94152.88;10582487;28;20035;-74
2021/08/05 10:06:12;;;;;;;13.97;4.87;;;;;;;48.19;18.87;94138.03;10576720;28;20082;-74
2021/08/05 10:11:13;;;;;;;21.50;5.27;;;;;;;48.80;17.52;94129.19;10575977;28;20088;-74
2021/08/05 10:16:13;;;;;;;18.85;4.88;;;;;;;50.04;17.34;94121.34;10576649;28;20035;-74
2021/08/05 10:21:15;;;;;;;19.13;3.93;;;;;;;50.02;16.43;94115.41;10577003;28;20036;-75
2021/08/05 10:26:15;;;;;;;23.35;5.60;;;;;;;50.65;17.20;94100.56;10557468;28;20293;-75
2021/08/05 10:31:16;;;;;;;15.73;4.37;;;;;;;50.07;16.75;94096.59;10558502;28;20176;-75
2021/08/05 10:36:16;;;;;;;20.63;4.80;;;;;;;50.80;16.29;94084.88;10575926;28;20261;-75
2021/08/05 10:41:17;;;;;;;23.00;4.67;;;;;;;51.43;15.05;94079.94;10557158;28;20028;-75
2021/08/05 10:46:20;;;;;;;18.27;5.50;;;;;;;50.44;12.65;94061.25;10575554;28;20304;-75
2021/08/05 10:51:20;;;;;;;14.60;5.18;;;;;;;50.64;11.37;94047.50;10575412;28;20277;-75
2021/08/05 10:56:23;;;;;;;21.60;5.73;;;;;;;47.33;12.91;94034.91;10575175;28;20028;-75
2021/08/05 11:01:45;;;;;;;23.80;6.03;;;;;;;47.02;13.53;94034.97;10574523;28;20051;-74
2021/08/05 11:06:46;;;;;;;19.70;6.25;;;;;;;45.65;14.08;94031.41;10556569;28;20035;-74
2021/08/05 11:11:46;;;;;;;29.23;6.33;;;;;;;43.40;14.88;94024.25;10574448;28;20038;-74
2021/08/05 11:16:50;;;;;;;29.87;8.00;;;;;;;42.17;16.29;93998.13;10574237;28;20023;-74
2021/08/05 11:21:51;;;;;;;20.92;7.35;;;;;;;40.69;17.12;93989.88;10573999;28;20142;-74
2021/08/05 11:27:11;;;;;;;26.58;9.35;;;;;;;39.42;19.12;93972.53;10573373;28;20116;-74
2021/08/05 11:32:26;;;;;;;31.13;8.05;;;;;;;38.68;18.84;93964.53;10573669;28;20044;-74
2021/08/05 11:37:28;;;;;;;25.90;7.80;;;;;;;38.29;18.26;93977.19;10573207;28;20051;-74
2021/08/05 11:42:31;;;;;;;31.40;8.88;;;;;;;38.44;18.57;93942.81;10572879;28;20036;-74
2021/08/05 11:47:35;;;;;;;30.92;6.60;;;;;;;37.90;17.40;93943.31;10573162;28;20031;-74
2021/08/05 11:52:46;;;;;;;19.10;5.80;;;;;;;38.16;18.11;93923.25;10572784;28;20034;-74
2021/08/05 11:57:48;;;;;;;30.23;6.03;;;;;;;38.35;17.83;93934.41;10577881;28;20028;-74
2021/08/05 12:02:54;;;;;;;24.25;6.55;;;;;;;37.98;16.65;93928.94;10572705;28;20447;-74
2021/08/05 12:07:55;;;;;;;14.95;5.45;;;;;;;37.76;16.80;93924.31;10572192;28;20027;-74
2021/08/05 12:12:57;;;;;;;26.13;6.33;;;;;;;37.69;16.88;93925.41;10572228;28;20031;-74
2021/08/05 12:17:59;;;;;;;19.83;4.57;;;;;;;37.52;16.56;93922.13;10571667;28;20024;-74
2021/08/05 12:23:10;;;;;;;21.75;5.45;;;;;;;37.49;16.27;93917.47;10571571;28;20077;-74
2021/08/05 12:28:21;;;;;;;13.55;4.63;;;;;;;38.05;17.35;93903.34;10570982;28;20043;-74
2021/08/05 12:33:24;;;;;;;26.00;4.97;;;;;;;38.69;16.58;93893.88;10571179;28;20399;-74
2021/08/05 12:38:24;;;;;;;18.33;4.40;;;;;;;38.83;15.87;93906.41;10571610;28;20023;-74
2021/08/05 12:43:30;;;;;;;25.48;5.32;;;;;;;38.46;16.57;93881.38;10571329;28;20024;-74
2021/08/05 12:48:30;;;;;;;28.95;5.60;;;;;;;38.35;16.59;93881.09;10571134;28;20024;-74
2021/08/05 12:53:35;;;;;;;24.33;4.68;;;;;;;38.11;17.09;93902.25;10571351;28;20482;-74
2021/08/05 12:58:35;;;;;;;25.50;4.78;;;;;;;37.55;16.96;93907.22;10571292;28;20391;-74
2021/08/05 13:03:36;;;;;;;21.92;5.03;;;;;;;37.45;17.83;93902.84;10570600;28;20024;-75
2021/08/05 13:08:39;;;;;;;19.60;4.18;;;;;;;37.17;18.37;93900.03;10570701;28;20080;-74
2021/08/05 13:13:45;;;;;;;17.42;4.22;;;;;;;36.71;18.50;93888.78;10552690;28;20141;-74
2021/08/05 13:19:15;;;;;;;13.88;3.78;;;;;;;36.21;18.09;93894.38;10576314;28;20020;-74
2021/08/05 13:24:29;;;;;;;20.95;4.43;;;;;;;35.95;18.83;93879.84;10568278;28;20039;-75
2021/08/05 13:29:47;;;;;;;21.63;4.38;;;;;;;35.93;18.50;93881.09;10570724;28;20031;-75
2021/08/05 13:35:02;;;;;;;20.15;4.30;;;;;;;36.36;19.75;93873.00;10584421;28;20031;-74
2021/08/05 13:40:08;;;;;;;23.30;6.07;;;;;;;36.68;20.51;93879.28;10570296;28;20043;-74
2021/08/05 13:45:09;;;;;;;25.63;4.50;;;;;;;36.65;19.20;93871.81;10578602;28;20042;-74
2021/08/05 13:50:21;;;;;;;18.23;4.40;;;;;;;36.26;19.48;93872.19;10577829;28;20027;-74
2021/08/05 13:55:22;;;;;;;19.88;6.57;;;;;;;36.28;19.48;93868.91;10577667;28;20101;-74
2021/08/05 14:00:23;;;;;;;22.85;5.03;;;;;;;36.35;19.86;93860.28;10577228;28;20028;-74
2021/08/05 14:05:24;;;;;;;23.33;4.78;;;;;;;36.57;20.59;93851.75;10577434;28;20020;-74
2021/08/05 14:10:25;;;;;;;26.55;5.90;;;;;;;36.16;20.13;93844.63;10576545;28;20463;-74
2021/08/05 14:15:25;;;;;;;29.57;6.03;;;;;;;36.17;20.42;93844.19;10576736;28;20023;-74
2021/08/05 14:20:26;;;;;;;20.13;4.83;;;;;;;36.15;20.45;93837.50;10576529;28;20273;-74
2021/08/05 14:25:26;;;;;;;22.13;5.53;;;;;;;36.04;21.18;93832.34;10557761;28;20133;-74
2021/08/05 14:30:27;;;;;;;21.02;6.60;;;;;;;36.04;21.14;93832.34;10576652;28;20296;-74
2021/08/05 14:35:27;;;;;;;21.75;6.32;;;;;;;36.00;21.11;93831.69;10576037;28;20087;-74
2021/08/05 14:40:28;;;;;;;25.13;6.73;;;;;;;35.83;21.83;93817.97;10575488;28;20061;-74
2021/08/05 14:45:28;;;;;;;29.37;8.90;;;;;;;35.72;21.54;93803.59;10557376;28;20024;-74
2021/08/05 14:50:28;;;;;;;28.07;8.67;;;;;;;35.44;23.18;93816.69;10575229;28;20024;-74
2021/08/05 14:55:29;;;;;;;25.33;9.03;;;;;;;35.41;22.88;93823.97;10557078;28;20031;-74
2021/08/05 15:00:29;;;;;;;25.40;8.77;;;;;;;35.47;22.99;93812.97;10574258;28;20390;-74
2021/08/05 15:05:30;;;;;;;35.90;10.67;;;;;;;35.80;23.50;93801.31;10574609;28;20028;-74
2021/08/05 15:10:31;;;;;;;28.38;9.52;;;;;;;35.98;23.01;93795.03;10573992;28;20342;-74
2021/08/05 15:15:31;;;;;;;25.67;10.68;;;;;;;35.57;23.12;93801.38;10574085;28;20402;-74
2021/08/05 15:20:31;;;;;;;34.53;11.40;;;;;;;35.47;22.48;93796.19;10574385;28;20739;-74
2021/08/05 15:25:32;;;;;;;24.93;9.03;;;;;;;35.42;23.16;93795.56;10573316;28;20800;-74
2021/08/05 15:30:37;;;;;;;26.17;10.40;;;;;;;35.33;22.94;93773.16;10573388;28;20399;-74
2021/08/05 15:35:38;;;;;;;28.40;9.35;;;;;;;35.24;22.85;93759.13;10573492;28;20281;-74
2021/08/05 15:40:38;;;;;;;32.63;10.20;;;;;;;35.08;23.08;93749.75;10573498;28;20031;-74
2021/08/05 15:45:39;;;;;;;32.83;10.97;;;;;;;34.99;23.15;93740.53;10572865;28;20031;-74
2021/08/05 15:50:39;;;;;;;28.42;10.55;;;;;;;34.90;23.76;93736.44;10572437;28;20400;-74
2021/08/05 15:55:40;;;;;;;27.23;9.93;;;;;;;34.91;24.12;93726.84;10572551;28;20119;-74
2021/08/05 16:00:40;;;;;;;35.33;10.07;;;;;;;34.96;23.81;93717.09;10571820;28;20023;-74
2021/08/05 16:05:42;;;;;;;29.90;10.50;;;;;;;34.79;24.05;93710.13;10571818;28;20028;-74
2021/08/05 16:10:45;;;;;;;36.28;11.82;;;;;;;34.81;25.18;93727.25;10570655;28;20038;-74
2021/08/05 16:15:46;;;;;;;32.97;10.68;;;;;;;34.20;26.36;93728.13;10571938;28;20034;-74
2021/08/05 16:20:46;;;;;;;30.83;13.38;;;;;;;31.63;29.89;93728.34;10571765;28;20027;-74
2021/08/05 16:25:47;;;;;;;32.10;13.63;;;;;;;30.57;32.73;93721.94;10527991;28;20044;-74
2021/08/05 16:30:47;;;;;;;30.80;12.87;;;;;;;30.57;31.78;93710.88;10487882;28;20515;-74
2021/08/05 16:35:49;;;;;;;33.67;14.60;;;;;;;30.95;31.45;93710.44;10487378;28;20063;-75
2021/08/05 16:40:49;;;;;;;28.37;13.33;;;;;;;31.33;31.36;93701.72;10487810;28;20068;-74
2021/08/05 16:45:50;;;;;;;40.80;13.23;;;;;;;31.52;31.60;93700.84;10486525;28;20306;-75
2021/08/05 16:50:50;;;;;;;32.70;12.87;;;;;;;31.89;31.21;93692.41;10512982;28;21128;-74
2021/08/05 16:55:51;;;;;;;33.43;12.43;;;;;;;31.98;30.44;93680.66;10527732;28;20827;-74
2021/08/05 17:00:51;;;;;;;31.20;14.33;;;;;;;32.03;30.29;93686.47;10487813;28;20055;-73
2021/08/05 17:05:51;;;;;;;40.60;12.63;;;;;;;32.02;30.11;93676.56;10488804;28;20150;-73
2021/08/05 17:10:52;;;;;;;35.83;14.23;;;;;;;32.04;28.61;93676.16;10527798;28;20426;-73
2021/08/05 17:15:52;;;;;;;36.10;13.73;;;;;;;32.15;27.16;93676.66;10539674;28;20931;-74
2021/08/05 17:20:52;;;;;;;37.67;12.27;;;;;;;32.21;27.41;93668.56;10572983;28;20269;-74
2021/08/05 17:25:53;;;;;;;34.70;15.07;;;;;;;32.25;27.24;93668.44;10577237;28;20044;-73
2021/08/05 17:30:53;;;;;;;55.30;21.20;;;;;;;32.23;27.25;93668.88;10578033;28;20039;-73
2021/08/05 17:35:54;;;;;;;52.77;26.00;;;;;;;32.31;27.50;93666.72;10577073;28;20149;-73
2021/08/05 17:40:54;;;;;;;59.20;27.33;;;;;;;32.23;27.67;93668.13;10577145;28;20031;-74
2021/08/05 17:45:54;;;;;;;72.50;34.33;;;;;;;32.18;27.86;93669.44;10540982;28;20032;-74
2021/08/05 17:50:55;;;;;;;67.70;33.37;;;;;;;32.19;27.89;93660.66;10531904;28;20035;-73
2021/08/05 17:55:57;;;;;;;66.57;33.63;;;;;;;32.09;28.06;93666.47;10530497;28;20365;-74
2021/08/05 18:00:57;;;;;;;60.78;25.58;;;;;;;32.03;27.72;93663.47;10534226;28;20300;-75
2021/08/05 18:05:57;;;;;;;61.63;27.03;;;;;;;32.07;27.93;93669.72;10533801;28;20092;-75
2021/08/05 18:10:58;;;;;;;55.00;23.37;;;;;;;32.05;27.57;93663.78;10534385;28;20032;-75
2021/08/05 18:15:58;;;;;;;55.15;20.13;;;;;;;32.03;27.74;93677.34;10533728;28;20165;-75
2021/08/05 18:20:59;;;;;;;49.87;19.93;;;;;;;31.99;27.95;93688.56;10518626;28;20062;-74
2021/08/05 18:26:00;;;;;;;48.72;16.58;;;;;;;31.94;27.78;93689.09;10491248;28;20060;-75
2021/08/05 18:31:00;;;;;;;49.33;17.60;;;;;;;32.00;27.99;93690.13;10490902;28;20498;-75
2021/08/05 18:36:01;;;;;;;50.57;23.03;;;;;;;32.02;28.59;93723.03;10491985;28;20025;-75
2021/08/05 18:41:04;;;;;;;42.05;14.73;;;;;;;31.79;32.68;93735.91;10491053;28;20107;-75
2021/08/05 18:46:05;;;;;;;40.15;12.15;;;;;;;31.61;33.93;93735.59;10527517;28;20028;-75
2021/08/05 18:51:07;;;;;;;38.47;12.10;;;;;;;31.30;35.36;93733.09;10533095;28;20032;-75
2021/08/05 18:56:07;;;;;;;43.25;11.88;;;;;;;30.88;37.09;93747.44;10514034;28;20475;-74
2021/08/05 19:01:08;;;;;;;31.40;12.67;;;;;;;30.69;37.76;93757.38;10532318;28;20020;-75
2021/08/05 19:06:09;;;;;;;45.93;12.37;;;;;;;30.15;39.11;93772.97;10532193;28;20270;-75
2021/08/05 19:11:09;;;;;;;43.72;11.65;;;;;;;29.76;40.61;93770.88;10531896;28;20040;-75
2021/08/05 19:16:09;;;;;;;32.35;11.02;;;;;;;29.47;42.13;93766.56;10530878;28;20016;-74
2021/08/05 19:21:10;;;;;;;25.27;11.13;;;;;;;29.42;43.79;93767.03;10530781;28;20039;-75
2021/08/05 19:26:10;;;;;;;33.53;10.50;;;;;;;29.22;44.79;93766.13;10531130;28;20043;-75
2021/08/05 19:31:12;;;;;;;32.63;11.03;;;;;;;28.83;47.20;93772.97;10531355;28;20039;-74
2021/08/05 19:36:12;;;;;;;33.17;10.50;;;;;;;28.59;48.58;93768.09;10530497;28;20020;-75
2021/08/05 19:41:12;;;;;;;38.27;12.57;;;;;;;28.41;49.44;93771.06;10509224;28;20031;-75
2021/08/05 19:46:14;;;;;;;39.47;12.73;;;;;;;28.29;50.84;93771.59;10528609;28;20034;-75
2021/08/05 19:51:14;;;;;;;39.15;10.93;;;;;;;28.05;52.36;93763.13;10530183;28;20043;-74
2021/08/05 19:56:15;;;;;;;31.70;11.00;;;;;;;27.90;52.74;93762.47;10529948;28;20024;-74
2021/08/05 20:01:15;;;;;;;35.07;11.83;;;;;;;27.72;54.45;93754.31;10530116;28;20266;-75
2021/08/05 20:06:15;;;;;;;34.30;11.50;;;;;;;27.65;55.21;93759.13;10529949;28;20036;-75
2021/08/05 20:11:16;;;;;;;40.67;11.70;;;;;;;27.58;56.08;93763.50;10529219;28;20335;-74
2021/08/05 20:16:16;;;;;;;39.47;10.55;;;;;;;27.52;56.70;93767.09;10529351;28;20070;-75
2021/08/05 20:21:17;;;;;;;37.97;11.18;;;;;;;27.48;56.32;93769.09;10529492;28;20024;-75
2021/08/05 20:26:17;;;;;;;36.70;11.88;;;;;;;27.38;57.67;93773.50;10528643;28;20515;-74
2021/08/05 20:31:19;;;;;;;32.10;10.50;;;;;;;27.35;57.65;93771.53;10528875;28;20506;-75
2021/08/05 20:36:19;;;;;;;38.33;10.57;;;;;;;27.28;58.89;93769.59;10528938;28;20032;-74
2021/08/05 20:41:21;;;;;;;41.58;10.43;;;;;;;27.19;60.24;93777.56;10528670;28;20026;-74
2021/08/05 20:46:22;;;;;;;35.00;12.07;;;;;;;27.17;58.89;93774.41;10528619;28;20387;-75
2021/08/05 20:51:22;;;;;;;45.43;12.10;;;;;;;27.07;59.44;93773.28;10528875;28;20024;-75
2021/08/05 20:56:22;;;;;;;38.42;11.73;;;;;;;27.02;59.76;93788.28;10514764;28;20636;-75
2021/08/05 21:01:23;;;;;;;31.57;11.97;;;;;;;26.90;61.24;93783.22;10537108;28;20024;-75
2021/08/05 21:06:23;;;;;;;40.40;12.75;;;;;;;26.69;62.23;93786.84;10536912;28;20020;-75
2021/08/05 21:11:24;;;;;;;39.67;11.77;;;;;;;26.83;62.46;93797.81;10536216;28;20039;-74
2021/08/05 21:16:24;;;;;;;36.90;10.93;;;;;;;26.84;62.74;93807.69;10536548;28;20461;-74
2021/08/05 21:21:24;;;;;;;37.93;11.73;;;;;;;26.90;62.17;93788.75;10536452;28;20315;-74
2021/08/05 21:26:25;;;;;;;38.20;11.50;;;;;;;26.93;62.32;93796.22;10536496;28;20043;-74
2021/08/05 21:31:25;;;;;;;36.53;11.17;;;;;;;26.76;63.13;93801.44;10535545;28;20292;-74
2021/08/05 21:36:25;;;;;;;30.87;10.87;;;;;;;26.73;63.20;93791.19;10535320;28;20915;-74
2021/08/05 21:41:26;;;;;;;25.70;11.00;;;;;;;26.73;63.81;93802.19;10518069;28;20266;-75
2021/08/05 21:46:26;;;;;;;38.22;10.85;;;;;;;26.61;64.88;93805.38;10535087;28;20020;-75
2021/08/05 21:51:27;;;;;;;38.47;11.48;;;;;;;26.58;67.83;93800.66;10517069;28;20039;-74
2021/08/05 21:56:28;;;;;;;40.23;11.87;;;;;;;26.49;69.09;93792.03;10534751;28;20024;-75
2021/08/05 22:01:28;;;;;;;31.15;11.25;;;;;;;26.41;69.43;93788.50;10534699;28;20020;-75
2021/08/05 22:06:30;;;;;;;33.37;11.77;;;;;;;26.28;71.89;93788.16;10533367;28;20032;-75
2021/08/05 22:11:32;;;;;;;39.70;11.95;;;;;;;26.00;72.75;93789.75;10534367;28;20026;-74
2021/08/05 22:16:32;;;;;;;35.67;11.25;;;;;;;25.87;74.83;93783.88;10533632;28;20028;-75
2021/08/05 22:21:32;;;;;;;33.07;13.00;;;;;;;25.79;73.37;93790.56;10533755;28;20024;-74
2021/08/05 22:26:33;;;;;;;38.00;12.53;;;;;;;25.66;75.70;93781.13;10533327;28;20298;-74
2021/08/05 22:31:33;;;;;;;34.20;11.13;;;;;;;25.74;73.93;93772.47;10533112;28;20157;-74
2021/08/05 22:36:34;;;;;;;30.97;11.20;;;;;;;25.69;74.23;93778.38;10533144;28;20266;-74
2021/08/05 22:41:35;;;;;;;33.25;11.73;;;;;;;25.57;74.95;93776.03;10533028;28;20491;-74
2021/08/05 22:46:36;;;;;;;33.80;12.80;;;;;;;25.51;74.19;93794.06;10531883;28;20038;-74
2021/08/05 22:51:36;;;;;;;35.47;13.90;;;;;;;25.37;74.50;93792.13;10531485;28;20061;-74
2021/08/05 22:56:36;;;;;;;29.43;10.53;;;;;;;25.48;75.25;93789.38;10513709;28;20266;-74
2021/08/05 23:01:37;;;;;;;29.23;9.53;;;;;;;25.71;73.51;93750.47;10513157;28;20277;-75